createdAt,value
2023-04-21T00:00:15.569Z,71.60
2023-04-21T00:02:43.594Z,71.30
2023-04-21T00:05:12.891Z,71.30
2023-04-21T00:07:41.886Z,71.50
2023-04-21T00:10:11.212Z,71.50
2023-04-21T00:12:39.382Z,71.40
2023-04-21T00:15:07.704Z,71.40
2023-04-21T00:17:35.484Z,71.20
2023-04-21T00:20:04.885Z,71.30
2023-04-21T00:22:32.466Z,71.50
2023-04-21T00:24:59.959Z,71.50
2023-04-21T00:27:27.538Z,71.30
2023-04-21T00:29:54.992Z,71.50
2023-04-21T00:32:22.597Z,71.60
2023-04-21T00:34:50.192Z,71.20
2023-04-21T00:37:17.708Z,71.40
2023-04-21T00:39:45.348Z,71.60
2023-04-21T00:42:16.655Z,71.50
2023-04-21T00:44:44.797Z,71.40
2023-04-21T00:47:12.377Z,71.50
2023-04-21T00:49:40.186Z,71.30
2023-04-21T00:52:07.970Z,71.40
2023-04-21T00:54:38.655Z,71.00
2023-04-21T00:57:08.262Z,71.10
2023-04-21T00:59:36.565Z,71.10
2023-04-21T01:02:04.759Z,71.20
2023-04-21T01:04:37.358Z,71.10
2023-04-21T01:07:05.604Z,70.70
2023-04-21T01:09:34.086Z,70.80
2023-04-21T01:12:06.292Z,71.10
2023-04-21T01:14:34.019Z,71.00
2023-04-21T01:17:01.638Z,70.80
2023-04-21T01:19:32.992Z,70.70
2023-04-21T01:22:01.217Z,70.70
2023-04-21T01:24:44.949Z,70.90
2023-04-21T01:27:14.823Z,70.80
2023-04-21T01:29:43.786Z,70.90
2023-04-21T01:32:15.762Z,71.00
2023-04-21T01:34:43.770Z,70.70
2023-04-21T01:37:12.958Z,70.80
2023-04-21T01:39:42.802Z,70.80
2023-04-21T01:42:10.745Z,70.70
2023-04-21T01:44:38.723Z,71.00
2023-04-21T01:47:07.420Z,70.90
2023-04-21T01:49:34.960Z,70.80
2023-04-21T01:52:02.595Z,71.10
2023-04-21T01:54:30.378Z,70.70
2023-04-21T01:56:58.280Z,70.10
2023-04-21T01:59:25.957Z,70.50
2023-04-21T02:01:53.770Z,70.50
2023-04-21T02:04:21.582Z,70.90
2023-04-21T02:06:49.268Z,70.70
2023-04-21T02:09:17.178Z,70.50
2023-04-21T02:11:44.936Z,70.50
2023-04-21T02:14:12.472Z,70.60
2023-04-21T02:16:40.189Z,70.80
2023-04-21T02:19:07.837Z,70.50
2023-04-21T02:21:35.497Z,70.10
2023-04-21T02:24:03.072Z,70.00
2023-04-21T02:26:30.577Z,70.20
2023-04-21T02:28:58.072Z,70.40
2023-04-21T02:31:25.711Z,70.30
2023-04-21T02:33:54.860Z,70.30
2023-04-21T02:36:22.644Z,70.10
2023-04-21T02:38:50.247Z,70.30
2023-04-21T02:41:17.807Z,70.30
2023-04-21T02:43:45.271Z,69.90
2023-04-21T02:46:12.888Z,70.20
2023-04-21T02:48:40.602Z,70.50
2023-04-21T02:51:14.825Z,70.30
2023-04-21T02:53:43.051Z,70.20
2023-04-21T02:56:10.861Z,70.20
2023-04-21T02:58:38.953Z,70.10
2023-04-21T03:01:06.830Z,70.20
2023-04-21T03:03:34.634Z,70.20
2023-04-21T03:06:04.994Z,69.90
2023-04-21T03:08:32.864Z,70.20
2023-04-21T03:11:01.166Z,69.60
2023-04-21T03:13:28.856Z,69.90
2023-04-21T03:15:57.574Z,69.90
2023-04-21T03:18:25.271Z,70.00
2023-04-21T03:20:53.196Z,69.70
2023-04-21T03:23:20.815Z,69.80
2023-04-21T03:25:48.355Z,69.60
2023-04-21T03:28:17.239Z,69.80
2023-04-21T03:30:44.752Z,69.80
2023-04-21T03:33:12.360Z,69.80
2023-04-21T03:35:40.209Z,69.60
2023-04-21T03:38:07.815Z,69.90
2023-04-21T03:40:35.566Z,69.60
2023-04-21T03:43:03.131Z,69.70
2023-04-21T03:45:30.795Z,69.70
2023-04-21T03:47:58.472Z,69.70
2023-04-21T03:50:26.047Z,69.70
2023-04-21T03:52:53.562Z,69.60
2023-04-21T03:55:21.129Z,69.60
2023-04-21T03:57:48.841Z,69.40
2023-04-21T04:00:16.773Z,69.50
2023-04-21T04:02:44.454Z,69.60
2023-04-21T04:05:12.389Z,69.50
2023-04-21T04:07:40.218Z,69.50
2023-04-21T04:10:08.035Z,69.40
2023-04-21T04:12:35.854Z,69.60
2023-04-21T04:15:03.646Z,69.80
2023-04-21T04:17:31.312Z,69.40
2023-04-21T04:19:58.892Z,69.60
2023-04-21T04:22:26.524Z,69.60
2023-04-21T04:24:54.088Z,69.70
2023-04-21T04:27:21.556Z,69.60
2023-04-21T04:29:50.541Z,69.50
2023-04-21T04:32:18.060Z,69.80
2023-04-21T04:34:45.680Z,69.70
2023-04-21T04:37:13.648Z,69.60
2023-04-21T04:39:41.344Z,69.90
2023-04-21T04:42:12.133Z,69.80
2023-04-21T04:44:41.744Z,69.70
2023-04-21T04:47:09.652Z,69.70
2023-04-21T04:49:37.177Z,69.90
2023-04-21T04:52:05.124Z,70.00
2023-04-21T04:54:32.749Z,70.90
2023-04-21T04:57:01.137Z,69.80
2023-04-21T04:59:30.808Z,71.00
2023-04-21T05:01:58.517Z,70.10
2023-04-21T05:04:27.219Z,71.10
2023-04-21T05:06:55.291Z,70.80
2023-04-21T05:09:22.809Z,71.20
2023-04-21T05:11:50.541Z,71.20
2023-04-21T05:14:18.215Z,71.40
2023-04-21T05:16:46.309Z,71.40
2023-04-21T05:19:13.859Z,71.30
2023-04-21T05:21:41.442Z,72.20
2023-04-21T05:24:09.175Z,71.50
2023-04-21T05:26:36.952Z,71.60
2023-04-21T05:29:04.492Z,71.70
2023-04-21T05:31:33.281Z,71.70
2023-04-21T05:34:00.791Z,71.80
2023-04-21T05:36:28.347Z,71.80
2023-04-21T05:38:56.192Z,71.50
2023-04-21T05:41:24.318Z,71.70
2023-04-21T05:43:51.840Z,71.80
2023-04-21T05:46:19.673Z,71.90
2023-04-21T05:48:47.276Z,71.90
2023-04-21T05:51:18.327Z,72.20
2023-04-21T05:53:46.597Z,72.00
2023-04-21T05:56:14.934Z,72.10
2023-04-21T05:58:42.532Z,72.10
2023-04-21T06:01:10.203Z,72.30
2023-04-21T06:03:37.893Z,72.40
2023-04-21T06:06:07.211Z,72.40
2023-04-21T06:08:34.929Z,72.50
2023-04-21T06:11:02.653Z,72.40
2023-04-21T06:13:30.260Z,72.40
2023-04-21T06:15:57.838Z,72.60
2023-04-21T06:18:27.734Z,72.50
2023-04-21T06:20:56.926Z,72.60
2023-04-21T06:23:24.484Z,72.80
2023-04-21T06:26:04.397Z,72.80
2023-04-21T06:28:33.461Z,72.80
2023-04-21T06:31:01.865Z,72.60
2023-04-21T06:33:30.186Z,72.80
2023-04-21T06:35:57.874Z,72.80
2023-04-21T06:38:25.637Z,73.00
2023-04-21T06:40:53.172Z,72.20
2023-04-21T06:43:21.012Z,72.20
2023-04-21T06:45:48.639Z,72.30
2023-04-21T06:48:16.163Z,72.40
2023-04-21T06:50:44.973Z,72.50
2023-04-21T06:53:12.791Z,72.50
2023-04-21T06:55:42.635Z,72.60
2023-04-21T06:58:10.260Z,72.60
2023-04-21T07:00:37.872Z,72.70
2023-04-21T07:03:05.668Z,72.70
2023-04-21T07:05:33.836Z,72.70
2023-04-21T07:08:01.491Z,72.80
2023-04-21T07:10:29.809Z,72.80
2023-04-21T07:12:57.367Z,73.00
2023-04-21T07:15:24.942Z,73.00
2023-04-21T07:17:52.442Z,73.00
2023-04-21T07:20:20.136Z,73.10
2023-04-21T07:22:47.677Z,73.10
2023-04-21T07:25:15.243Z,73.20
2023-04-21T07:27:42.911Z,73.10
2023-04-21T07:30:11.134Z,73.10
2023-04-21T07:32:39.134Z,73.30
2023-04-21T07:35:07.762Z,73.40
2023-04-21T07:37:35.372Z,73.40
2023-04-21T07:40:03.080Z,73.50
2023-04-21T07:42:30.718Z,73.60
2023-04-21T07:44:58.343Z,73.70
2023-04-21T07:47:25.986Z,73.70
2023-04-21T07:49:53.485Z,73.80
2023-04-21T07:52:21.213Z,73.70
2023-04-21T07:54:48.850Z,73.80
2023-04-21T07:57:16.521Z,73.60
2023-04-21T07:59:44.231Z,73.60
2023-04-21T08:02:11.839Z,73.70
2023-04-21T08:04:39.679Z,73.80
2023-04-21T08:07:07.529Z,73.80
2023-04-21T08:09:35.373Z,73.80
2023-04-21T08:12:03.596Z,73.80
2023-04-21T08:14:32.570Z,73.80
2023-04-21T08:17:00.511Z,73.90
2023-04-21T08:19:28.184Z,73.90
2023-04-21T08:21:56.128Z,73.70
2023-04-21T08:24:23.976Z,73.80
2023-04-21T08:26:51.589Z,73.60
2023-04-21T08:29:19.180Z,73.70
2023-04-21T08:31:46.883Z,73.80
2023-04-21T08:34:14.570Z,73.90
2023-04-21T08:36:43.010Z,73.80
2023-04-21T08:39:10.706Z,73.90
2023-04-21T08:41:41.521Z,73.90
2023-04-21T08:44:14.097Z,73.70
2023-04-21T08:46:44.580Z,73.70
2023-04-21T08:49:19.193Z,73.70
2023-04-21T08:51:48.103Z,73.70
2023-04-21T08:54:18.634Z,73.30
2023-04-21T08:56:47.982Z,73.20
2023-04-21T08:59:15.499Z,73.50
2023-04-21T09:02:09.196Z,73.50
2023-04-21T09:04:41.508Z,73.60
2023-04-21T09:07:09.885Z,73.60
2023-04-21T09:09:57.557Z,73.70
2023-04-21T09:12:25.162Z,73.60
2023-04-21T09:14:52.695Z,73.60
2023-04-21T09:17:32.688Z,74.40
2023-04-21T09:20:21.645Z,73.90
2023-04-21T09:22:51.525Z,73.80
2023-04-21T09:25:21.065Z,74.00
2023-04-21T09:27:48.685Z,74.20
2023-04-21T09:30:20.849Z,74.10
2023-04-21T09:32:48.623Z,74.00
2023-04-21T09:35:16.317Z,73.90
2023-04-21T09:37:46.741Z,74.00
2023-04-21T09:40:15.591Z,74.10
2023-04-21T09:42:44.742Z,73.80
2023-04-21T09:47:50.642Z,74.40
2023-04-21T09:50:36.192Z,74.30
2023-04-21T09:53:10.221Z,75.10
2023-04-21T09:55:38.398Z,74.60
2023-04-21T09:58:07.578Z,74.80
2023-04-21T10:00:39.590Z,75.20
2023-04-21T10:03:10.868Z,74.80
2023-04-21T10:05:42.216Z,75.00
2023-04-21T10:08:12.287Z,75.00
2023-04-21T10:10:40.576Z,75.30
2023-04-21T10:13:14.917Z,75.20
2023-04-21T10:15:42.812Z,75.30
2023-04-21T10:18:16.599Z,75.40
2023-04-21T10:20:55.664Z,75.50
2023-04-21T10:23:29.847Z,75.50
2023-04-21T10:26:15.492Z,75.70
2023-04-21T10:28:44.148Z,75.80
2023-04-21T10:31:27.416Z,75.50
2023-04-21T10:34:09.933Z,75.60
2023-04-21T10:36:47.025Z,75.40
2023-04-21T10:39:26.649Z,75.60
2023-04-21T10:41:58.722Z,75.80
2023-04-21T10:44:29.623Z,75.80
2023-04-21T10:46:59.485Z,75.80
2023-04-21T10:49:30.459Z,75.80
2023-04-21T10:52:03.463Z,76.00
2023-04-21T10:54:42.263Z,76.00
2023-04-21T10:57:16.037Z,76.10
2023-04-21T10:59:44.361Z,76.10
2023-04-21T11:02:14.036Z,75.80
2023-04-21T11:04:48.265Z,75.80
2023-04-21T11:07:21.490Z,75.80
2023-04-21T11:09:56.794Z,75.70
2023-04-21T11:12:29.236Z,75.50
2023-04-21T11:14:57.021Z,75.50
2023-04-21T11:17:25.501Z,75.70
2023-04-21T11:19:55.153Z,75.70
2023-04-21T11:22:24.902Z,75.90
2023-04-21T11:24:55.736Z,76.00
2023-04-21T11:27:23.823Z,75.90
2023-04-21T11:29:52.020Z,75.90
2023-04-21T11:32:19.668Z,75.60
2023-04-21T11:34:48.087Z,76.00
2023-04-21T11:37:21.077Z,75.90
2023-04-21T11:39:48.607Z,75.90
2023-04-21T11:42:25.156Z,75.80
2023-04-21T11:44:56.827Z,75.80
2023-04-21T11:47:27.100Z,76.00
2023-04-21T11:50:01.065Z,76.10
2023-04-21T11:52:33.825Z,76.10
2023-04-21T11:55:03.932Z,75.80
2023-04-21T11:57:33.099Z,75.90
2023-04-21T12:00:12.090Z,75.70
2023-04-21T12:02:40.058Z,75.50
2023-04-21T12:05:12.508Z,75.60
2023-04-21T12:07:43.659Z,75.70
2023-04-21T12:10:18.909Z,75.70
2023-04-21T12:12:46.922Z,75.90
2023-04-21T12:15:23.631Z,75.50
2023-04-21T12:17:53.247Z,75.60
2023-04-21T12:20:23.622Z,75.80
2023-04-21T12:22:51.376Z,75.70
2023-04-21T12:25:19.029Z,75.60
2023-04-21T12:27:54.433Z,75.60
2023-04-21T12:30:22.152Z,75.80
2023-04-21T12:32:49.914Z,75.80
2023-04-21T12:35:17.789Z,75.80
2023-04-21T12:37:45.866Z,75.70
2023-04-21T12:40:13.569Z,75.60
2023-04-21T12:42:41.202Z,75.70
2023-04-21T12:45:09.260Z,75.80
2023-04-21T12:47:37.729Z,75.70
2023-04-21T12:50:05.837Z,75.70
2023-04-21T12:52:33.427Z,75.80
2023-04-21T12:55:01.038Z,75.70
2023-04-21T12:57:29.300Z,76.00
2023-04-21T12:59:56.805Z,76.00
2023-04-21T13:02:24.524Z,75.90
2023-04-21T13:04:52.301Z,75.70
2023-04-21T13:07:22.380Z,75.60
2023-04-21T13:09:49.947Z,75.60
2023-04-21T13:12:17.635Z,75.50
2023-04-21T13:14:45.169Z,75.50
2023-04-21T13:17:13.543Z,75.40
2023-04-21T13:19:41.291Z,75.60
2023-04-21T13:22:08.959Z,75.60
2023-04-21T13:24:36.783Z,75.50
2023-04-21T13:27:04.407Z,76.30
2023-04-21T13:29:34.683Z,75.50
2023-04-21T13:32:03.368Z,75.40
2023-04-21T13:34:34.041Z,75.60
2023-04-21T13:37:02.374Z,75.60
2023-04-21T13:39:30.437Z,75.60
2023-04-21T13:41:58.358Z,75.60
2023-04-21T13:44:25.914Z,75.60
2023-04-21T13:46:54.294Z,75.40
2023-04-21T13:49:22.134Z,75.60
2023-04-21T13:51:49.659Z,75.30
2023-04-21T13:54:17.237Z,75.10
2023-04-21T13:56:44.765Z,75.00
2023-04-21T13:59:15.032Z,75.00
2023-04-21T14:01:45.340Z,74.80
2023-04-21T14:04:13.059Z,74.40
2023-04-21T14:06:40.888Z,74.80
2023-04-21T14:09:09.662Z,74.80
2023-04-21T14:11:37.155Z,74.80
2023-04-21T14:14:09.605Z,74.90
2023-04-21T14:16:38.952Z,75.00
2023-04-21T14:19:07.069Z,74.80
2023-04-21T14:21:34.996Z,75.00
2023-04-21T14:24:02.666Z,74.90
2023-04-21T14:26:33.214Z,74.40
2023-04-21T14:29:01.828Z,74.60
2023-04-21T14:31:29.740Z,74.50
2023-04-21T14:33:57.308Z,74.70
2023-04-21T14:36:24.955Z,74.30
2023-04-21T14:38:52.520Z,74.50
2023-04-21T14:41:20.053Z,74.60
2023-04-21T14:43:49.551Z,74.40
2023-04-21T14:46:17.572Z,74.50
2023-04-21T14:48:45.200Z,73.80
2023-04-21T14:51:12.842Z,74.50
2023-04-21T14:53:40.952Z,73.90
2023-04-21T14:56:08.587Z,74.10
2023-04-21T14:58:36.115Z,73.70
2023-04-21T15:01:03.966Z,73.60
2023-04-21T15:03:31.871Z,74.10
2023-04-21T15:05:59.549Z,74.10
2023-04-21T15:08:27.834Z,73.80
2023-04-21T15:10:55.557Z,69.20
2023-04-21T15:13:23.486Z,70.30
2023-04-21T15:15:52.456Z,72.40
2023-04-21T15:18:21.276Z,72.70
2023-04-21T15:20:48.902Z,73.20
2023-04-21T15:23:16.839Z,73.40
2023-04-21T15:25:44.330Z,73.30
2023-04-21T15:28:13.370Z,73.50
2023-04-21T15:30:41.346Z,73.30
2023-04-21T15:33:09.045Z,73.30
2023-04-21T15:35:36.718Z,73.70
2023-04-21T15:38:06.270Z,73.80
2023-04-21T15:40:33.967Z,73.50
2023-04-21T15:43:02.238Z,72.90
2023-04-21T15:45:29.815Z,73.80
2023-04-21T15:47:58.231Z,73.40
2023-04-21T15:50:25.934Z,73.20
2023-04-21T15:52:53.506Z,73.60
2023-04-21T15:55:21.624Z,73.40
2023-04-21T15:57:49.385Z,74.00
2023-04-21T16:00:17.188Z,73.30
2023-04-21T16:02:44.903Z,73.00
2023-04-21T16:05:12.757Z,73.60
2023-04-21T16:07:40.650Z,73.40
2023-04-21T16:10:08.916Z,73.70
2023-04-21T16:12:36.537Z,73.70
2023-04-21T16:15:22.472Z,72.60
2023-04-21T16:17:51.833Z,71.60
2023-04-21T16:20:19.687Z,72.90
2023-04-21T16:22:48.934Z,72.90
2023-04-21T16:25:18.751Z,72.30
2023-04-21T16:27:46.484Z,72.10
2023-04-21T16:30:14.075Z,71.20
2023-04-21T16:32:41.832Z,72.70
2023-04-21T16:35:10.252Z,72.90
2023-04-21T16:37:40.744Z,72.40
2023-04-21T16:40:09.686Z,71.00
2023-04-21T16:42:38.017Z,71.50
2023-04-21T16:45:06.830Z,71.10
2023-04-21T16:47:41.339Z,71.20
2023-04-21T16:50:10.354Z,70.90
2023-04-21T16:52:38.130Z,71.70
2023-04-21T16:55:06.084Z,71.50
2023-04-21T16:57:34.418Z,71.60
2023-04-21T17:00:07.264Z,71.10
2023-04-21T17:02:35.143Z,71.40
2023-04-21T17:05:03.062Z,71.80
2023-04-21T17:07:32.285Z,72.00
2023-04-21T17:09:59.923Z,71.20
2023-04-21T17:12:27.722Z,71.60
2023-04-21T17:14:55.352Z,70.90
2023-04-21T17:17:23.157Z,71.30
2023-04-21T17:19:52.716Z,71.30
2023-04-21T17:22:20.291Z,71.10
2023-04-21T17:27:18.206Z,70.30
2023-04-21T17:29:45.786Z,70.70
2023-04-21T17:32:13.303Z,71.00
2023-04-21T17:34:40.984Z,70.50
2023-04-21T17:37:08.635Z,70.60
2023-04-21T17:39:36.209Z,70.80
2023-04-21T17:42:03.825Z,70.30
2023-04-21T17:44:31.646Z,70.50
2023-04-21T17:46:59.247Z,70.50
2023-04-21T17:49:27.194Z,70.20
2023-04-21T17:51:54.745Z,70.20
2023-04-21T17:54:22.267Z,69.80
2023-04-21T17:56:50.732Z,69.60
2023-04-21T17:59:18.463Z,70.00
2023-04-21T18:01:46.106Z,69.90
2023-04-21T18:04:14.382Z,69.60
2023-04-21T18:06:42.124Z,69.70
2023-04-21T18:09:10.157Z,69.20
2023-04-21T18:11:38.788Z,68.60
2023-04-21T18:14:07.183Z,68.50
2023-04-21T18:16:35.098Z,68.30
2023-04-21T18:19:02.709Z,68.10
2023-04-21T18:21:30.307Z,67.50
2023-04-21T18:23:57.960Z,67.70
2023-04-21T18:26:28.139Z,67.30
2023-04-21T18:28:58.437Z,67.50
2023-04-21T18:31:28.790Z,66.80
2023-04-21T18:33:56.732Z,66.50
2023-04-21T18:36:24.469Z,66.50
2023-04-21T18:38:52.102Z,65.70
2023-04-21T18:41:21.112Z,65.20
2023-04-21T18:43:48.800Z,64.70
2023-04-21T18:46:16.998Z,65.10
2023-04-21T18:48:44.529Z,64.80
2023-04-21T18:51:12.129Z,64.90
2023-04-21T18:53:39.686Z,64.40
2023-04-21T18:56:07.279Z,64.20
2023-04-21T18:58:34.825Z,64.20
2023-04-21T19:01:02.408Z,63.50
2023-04-21T19:03:30.165Z,63.90
2023-04-21T19:05:57.815Z,63.70
2023-04-21T19:08:38.743Z,63.50
2023-04-21T19:11:10.557Z,63.30
2023-04-21T19:13:38.173Z,63.10
2023-04-21T19:16:05.801Z,62.80
2023-04-21T19:18:33.399Z,62.90
2023-04-21T19:21:01.065Z,62.60
2023-04-21T19:23:28.554Z,62.40
2023-04-21T19:25:57.744Z,62.10
2023-04-21T19:28:25.223Z,62.10
2023-04-21T19:30:52.761Z,62.10
2023-04-21T19:33:20.533Z,62.00
2023-04-21T19:35:48.248Z,62.00
2023-04-21T19:38:16.157Z,61.60
2023-04-21T19:40:45.246Z,61.90
2023-04-21T19:43:15.293Z,61.60
2023-04-21T19:45:42.953Z,61.50
2023-04-21T19:48:10.748Z,61.50
2023-04-21T19:50:38.985Z,61.70
2023-04-21T19:53:06.531Z,61.30
2023-04-21T19:55:34.203Z,61.00
2023-04-21T19:58:01.813Z,60.90
2023-04-21T20:00:29.316Z,60.60
2023-04-21T20:02:56.989Z,60.70
2023-04-21T20:05:24.564Z,60.70
2023-04-21T20:07:52.350Z,60.70
2023-04-21T20:10:20.006Z,60.60
2023-04-21T20:12:47.558Z,60.50
2023-04-21T20:15:16.447Z,59.90
2023-04-21T20:17:47.547Z,60.30
2023-04-21T20:20:16.618Z,60.20
2023-04-21T20:22:44.183Z,60.20
2023-04-21T20:25:13.098Z,60.20
2023-04-21T20:27:41.335Z,60.30
2023-04-21T20:30:09.301Z,60.80
2023-04-21T20:32:36.899Z,60.00
2023-04-21T20:35:05.785Z,60.30
2023-04-21T20:37:33.766Z,60.00
2023-04-21T20:40:02.185Z,60.00
2023-04-21T20:42:29.705Z,59.80
2023-04-21T20:44:57.202Z,60.30
2023-04-21T20:47:25.077Z,60.50
2023-04-21T20:49:52.724Z,60.40
2023-04-21T20:52:20.379Z,60.20
2023-04-21T20:54:47.892Z,60.00
2023-04-21T20:57:15.943Z,60.10
2023-04-21T20:59:43.497Z,60.10
2023-04-21T21:02:11.219Z,60.10
2023-04-21T21:04:38.812Z,60.30
2023-04-21T21:07:06.688Z,60.40
2023-04-21T21:09:34.379Z,60.50
2023-04-21T21:12:02.647Z,60.30
2023-04-21T21:14:30.338Z,60.40
2023-04-21T21:16:57.882Z,60.40
2023-04-21T21:19:25.452Z,60.60
2023-04-21T21:21:52.965Z,60.80
2023-04-21T21:24:20.534Z,60.60
2023-04-21T21:26:48.076Z,60.50
2023-04-21T21:29:15.657Z,60.70
2023-04-21T21:31:43.505Z,60.90
2023-04-21T21:34:11.151Z,61.00
2023-04-21T21:36:38.805Z,61.00
2023-04-21T21:39:07.790Z,61.20
2023-04-21T21:41:37.181Z,61.10
2023-04-21T21:44:04.673Z,61.10
2023-04-21T21:46:32.431Z,61.20
2023-04-21T21:49:00.228Z,61.50
2023-04-21T21:51:29.157Z,61.40
2023-04-21T21:53:56.661Z,61.70
2023-04-21T21:56:25.994Z,61.60
2023-04-21T21:58:53.771Z,61.60
2023-04-21T22:01:21.291Z,61.70
2023-04-21T22:03:48.955Z,61.70
2023-04-21T22:06:17.328Z,61.70
2023-04-21T22:08:45.771Z,61.90
2023-04-21T22:11:13.290Z,61.80
2023-04-21T22:13:41.038Z,61.90
2023-04-21T22:16:08.763Z,62.00
2023-04-21T22:18:36.744Z,62.20
2023-04-21T22:21:04.437Z,62.70
2023-04-21T22:23:32.304Z,62.10
2023-04-21T22:25:59.945Z,62.30
2023-04-21T22:28:27.591Z,62.40
2023-04-21T22:30:55.196Z,62.50
2023-04-21T22:33:24.402Z,62.60
2023-04-21T22:35:51.951Z,62.40
2023-04-21T22:38:19.435Z,62.50
2023-04-21T22:40:47.184Z,62.70
2023-04-21T22:43:14.736Z,62.60
2023-04-21T22:45:43.182Z,62.80
2023-04-21T22:48:11.242Z,62.80
2023-04-21T22:50:38.718Z,62.80
2023-04-21T22:53:06.478Z,62.80
2023-04-21T22:55:34.036Z,62.80
2023-04-21T22:58:01.597Z,62.80
2023-04-21T23:00:29.224Z,62.90
2023-04-21T23:02:56.875Z,63.00
2023-04-21T23:05:24.546Z,63.10
2023-04-21T23:07:52.082Z,63.20
2023-04-21T23:10:19.676Z,63.20
2023-04-21T23:12:47.240Z,63.40
2023-04-21T23:15:14.740Z,63.20
2023-04-21T23:17:43.515Z,63.30
2023-04-21T23:20:11.460Z,63.40
2023-04-21T23:22:39.053Z,63.60
2023-04-21T23:25:07.515Z,63.40
2023-04-21T23:27:35.255Z,63.70
2023-04-21T23:30:02.927Z,63.70
2023-04-21T23:32:30.694Z,63.70
2023-04-21T23:34:58.254Z,63.70
2023-04-21T23:37:25.875Z,63.90
2023-04-21T23:39:53.418Z,63.90
2023-04-21T23:42:20.940Z,64.00
2023-04-21T23:44:48.484Z,64.00
2023-04-21T23:47:15.966Z,64.10
2023-04-21T23:49:43.574Z,64.00
2023-04-21T23:52:11.304Z,64.20
2023-04-21T23:54:39.189Z,64.20
2023-04-21T23:57:06.742Z,64.20
2023-04-21T23:59:34.309Z,64.40
